ラホール の空港の天気 - METARとTAF

ラホール国際空港 ( OPLA / LHE ) - パキスタン ラホール
飛行場実況気象(Metar)
観測時間08/14 01:55 PKT (08/13 20:55 UTC)
風向・風速南南東 4m/s
視程4000m
天気現象
少しの雲 雲底高度 3050m
気温30℃
湿度70%
気圧1000hPa
METAROPLA 132055Z 16007KT 4000 FU FEW100 30/24 Q1000 NOSIG RMK QFE973 A29.54
過去の天気等 Google飛行場航空写真 Wunderground天気予報

過去48時間のMETAR

飛行場予報(TAF)
発表時間: 8/13 20:45 PKT (8/13 15:45 UTC)
予報対象時間: 13日23時 PKT ~ 15日5時 PKT
風向・風速南南東 4m/s
視程4000m
天気現象
全天の4割程度の雲 雲底高度 3050m
14日10時 PKT から
風向・風速南東 5m/s
視程5000m
天気現象
全天の4割程度の雲 雲底高度 1220m
全天の4割程度の雲 雲底高度 3050m
14日14時 PKT ~ 14日19時 PKT に一時的に
風向・風速北 8m/s 瞬間風速 15m/s
視程2000m
天気現象雷雨
少しの積乱雲 雲底高度 910m
全天の4割程度の雲 雲底高度 1220m
全天の8割程度の雲 雲底高度 3050m
14日21時 PKT から
風向・風速東南東 5m/s
視程4000m
天気現象
全天の4割程度の雲 雲底高度 1220m
全天の4割程度の雲 雲底高度 3050m
TAF OPLA 131545Z 1318/1424 15008KT 4000 FU SCT100 TX37/1410Z TN27/1400Z
FM140500 14010KT 5000 FU SCT040 SCT100
TEMPO 1409/1414 35015G30KT 2000 TSRA FEW030CB SCT040 BKN100
FM141600 12010KT 4000 FU SCT040 SCT100